createdAt,value
2019-03-28T00:04:10.818Z,10.50
2019-03-28T00:09:14.367Z,10.53
2019-03-28T00:14:17.916Z,11.27
2019-03-28T00:19:21.479Z,11.10
2019-03-28T00:24:28.811Z,11.67
2019-03-28T00:29:32.350Z,12.27
2019-03-28T00:34:35.923Z,12.13
2019-03-28T00:39:40.176Z,11.30
2019-03-28T00:44:43.816Z,12.80
2019-03-28T00:49:47.381Z,11.87
2019-03-28T00:54:50.961Z,11.77
2019-03-28T00:59:54.526Z,12.37
2019-03-28T01:04:58.090Z,11.77
2019-03-28T01:10:01.641Z,11.93
2019-03-28T01:15:06.653Z,12.27
2019-03-28T01:20:10.371Z,13.80
2019-03-28T01:25:13.906Z,13.17
2019-03-28T01:30:17.436Z,12.70
2019-03-28T01:35:21.010Z,12.83
2019-03-28T01:40:24.535Z,12.30
2019-03-28T01:45:28.052Z,11.57
2019-03-28T01:50:31.579Z,12.17
2019-03-28T01:55:35.133Z,11.13
2019-03-28T02:00:38.673Z,12.97
2019-03-28T02:05:42.226Z,12.07
2019-03-28T02:10:45.748Z,12.73
2019-03-28T02:15:49.447Z,11.87
2019-03-28T02:20:53.015Z,12.87
2019-03-28T02:25:56.554Z,12.40
2019-03-28T02:31:00.115Z,12.93
2019-03-28T02:36:03.680Z,13.13
2019-03-28T02:41:07.205Z,12.70
2019-03-28T02:46:10.745Z,13.00
2019-03-28T02:51:14.418Z,12.33
2019-03-28T02:56:17.978Z,14.30
2019-03-28T03:01:21.574Z,14.03
2019-03-28T03:06:25.094Z,12.93
2019-03-28T03:11:28.669Z,13.60
2019-03-28T03:16:32.280Z,12.43
2019-03-28T03:21:36.044Z,13.47
2019-03-28T03:26:40.720Z,13.30
2019-03-28T03:31:44.259Z,11.03
2019-03-28T03:36:47.803Z,13.00
2019-03-28T03:41:51.324Z,11.90
2019-03-28T03:46:54.894Z,11.17
2019-03-28T03:51:58.425Z,11.97
2019-03-28T03:57:01.968Z,10.93
2019-03-28T04:02:05.514Z,11.93
2019-03-28T04:07:09.182Z,10.83
2019-03-28T04:12:12.801Z,10.70
2019-03-28T04:17:16.377Z,9.87
2019-03-28T04:22:19.912Z,11.53
2019-03-28T04:27:23.439Z,10.07
2019-03-28T04:32:26.964Z,11.00
2019-03-28T04:37:30.472Z,10.80
2019-03-28T04:42:35.468Z,11.63
2019-03-28T04:47:39.746Z,11.77
2019-03-28T04:52:46.083Z,11.73
2019-03-28T04:57:49.636Z,10.90
2019-03-28T05:02:54.705Z,12.07
2019-03-28T05:07:59.830Z,11.30
2019-03-28T05:13:03.433Z,11.67
2019-03-28T05:18:11.565Z,11.97
2019-03-28T05:23:21.668Z,11.90
2019-03-28T05:28:27.473Z,12.77
2019-03-28T05:33:33.847Z,11.10
2019-03-28T05:38:37.703Z,10.53
2019-03-28T05:43:45.373Z,11.87
2019-03-28T05:48:48.420Z,10.87
2019-03-28T05:53:51.938Z,11.23
2019-03-28T05:58:55.484Z,11.33
2019-03-28T06:03:59.007Z,10.50
2019-03-28T06:09:04.218Z,10.87
2019-03-28T06:14:08.326Z,15.57
2019-03-28T06:19:13.139Z,11.10
2019-03-28T06:24:16.814Z,11.20
2019-03-28T06:29:24.052Z,11.40
2019-03-28T06:34:27.617Z,10.23
2019-03-28T06:39:31.495Z,10.40
2019-03-28T06:44:35.537Z,10.57
2019-03-28T06:49:39.077Z,12.20
2019-03-28T06:54:42.658Z,11.57
2019-03-28T06:59:46.195Z,11.13
2019-03-28T07:04:49.722Z,11.03
2019-03-28T07:09:53.299Z,10.33
2019-03-28T08:16:54.928Z,11.00
2019-03-28T08:21:58.425Z,11.30
2019-03-28T08:27:01.936Z,11.10
2019-03-28T08:32:09.190Z,10.27
2019-03-28T08:37:13.508Z,10.03
2019-03-28T08:42:17.032Z,8.87
2019-03-28T08:47:20.650Z,9.07
2019-03-28T08:52:24.183Z,8.43
2019-03-28T08:57:27.734Z,8.70
2019-03-28T09:02:31.250Z,7.97
2019-03-28T09:07:34.810Z,8.70
2019-03-28T09:12:39.770Z,8.93
2019-03-28T09:17:44.500Z,8.93
2019-03-28T09:22:48.573Z,8.80
2019-03-28T09:27:53.257Z,8.20
2019-03-28T09:32:58.601Z,7.33
2019-03-28T09:38:03.530Z,7.30
2019-03-28T09:43:08.478Z,7.53
2019-03-28T09:48:16.249Z,6.73
2019-03-28T09:53:21.458Z,6.80
2019-03-28T09:58:26.140Z,7.20
2019-03-28T10:03:31.875Z,9.63
2019-03-28T10:08:36.465Z,7.13
2019-03-28T10:13:41.647Z,5.83
2019-03-28T10:18:45.433Z,6.03
2019-03-28T10:23:51.539Z,5.70
2019-03-28T10:28:56.529Z,5.17
2019-03-28T10:34:01.293Z,4.80
2019-03-28T10:39:08.910Z,4.87
2019-03-28T10:44:13.412Z,4.83
2019-03-28T10:49:17.807Z,5.60
2019-03-28T10:54:25.598Z,4.20
2019-03-28T10:59:31.814Z,3.97
2019-03-28T11:04:37.615Z,4.07
2019-03-28T11:09:44.271Z,4.50
2019-03-28T11:14:50.282Z,5.13
2019-03-28T11:19:57.404Z,4.43
2019-03-28T11:25:02.480Z,4.63
2019-03-28T11:30:10.013Z,4.10
2019-03-28T11:35:15.050Z,4.17
2019-03-28T11:40:20.089Z,4.17
2019-03-28T11:45:26.744Z,3.90
2019-03-28T11:50:29.107Z,3.57
2019-03-28T11:55:32.673Z,4.50
2019-03-28T12:00:36.192Z,5.03
2019-03-28T12:05:39.803Z,4.00
2019-03-28T12:10:43.319Z,4.53
2019-03-28T12:15:46.824Z,3.73
2019-03-28T12:20:50.338Z,3.67
2019-03-28T12:25:53.873Z,4.40
2019-03-28T12:30:57.481Z,3.87
2019-03-28T12:36:01.171Z,3.57
2019-03-28T12:41:04.851Z,3.87
2019-03-28T12:46:08.372Z,4.17
2019-03-28T12:51:12.365Z,3.90
2019-03-28T12:56:15.905Z,4.20
2019-03-28T13:01:19.458Z,4.37
2019-03-28T13:06:22.966Z,4.40
2019-03-28T13:11:26.499Z,4.90
2019-03-28T13:16:30.210Z,5.17
2019-03-28T13:21:34.651Z,3.80
2019-03-28T13:26:38.148Z,3.23
2019-03-28T13:31:41.669Z,3.97
2019-03-28T13:36:45.195Z,3.50
2019-03-28T13:41:48.711Z,2.90
2019-03-28T13:46:52.228Z,4.30
2019-03-28T13:51:55.788Z,3.40
2019-03-28T13:56:59.398Z,5.27
2019-03-28T14:02:02.932Z,4.93
2019-03-28T14:07:06.436Z,5.30
2019-03-28T14:12:09.986Z,6.50
2019-03-28T14:17:13.555Z,5.23
2019-03-28T14:22:18.289Z,4.70
2019-03-28T14:27:22.020Z,4.83
2019-03-28T14:32:25.552Z,4.37
2019-03-28T14:37:29.057Z,4.30
2019-03-28T14:42:32.580Z,3.93
2019-03-28T14:47:36.101Z,3.90
2019-03-28T14:52:39.623Z,4.13
2019-03-28T14:57:43.172Z,3.50
2019-03-28T15:02:46.732Z,3.93
2019-03-28T15:07:50.345Z,3.90
2019-03-28T15:12:53.872Z,4.50
2019-03-28T15:17:57.413Z,4.47
2019-03-28T15:23:00.924Z,4.70
2019-03-28T15:28:04.452Z,4.60
2019-03-28T15:33:08.028Z,3.70
2019-03-28T15:38:11.557Z,4.43
2019-03-28T15:43:16.049Z,4.30
2019-03-28T15:48:20.211Z,4.40
2019-03-28T15:53:24.100Z,5.40
2019-03-28T15:58:27.651Z,5.40
2019-03-28T16:03:31.167Z,4.90
2019-03-28T16:08:34.689Z,3.93
2019-03-28T16:13:38.291Z,5.30
2019-03-28T16:18:41.831Z,5.93
2019-03-28T16:23:45.338Z,5.70
2019-03-28T16:28:48.859Z,5.30
2019-03-28T16:34:05.819Z,5.20
2019-03-28T16:38:57.846Z,5.50
2019-03-28T16:44:01.384Z,4.40
2019-03-28T16:49:04.937Z,4.67
2019-03-28T16:54:08.460Z,5.43
2019-03-28T16:59:12.002Z,4.33
2019-03-28T17:04:20.942Z,4.60
2019-03-28T17:09:22.202Z,6.00
2019-03-28T17:14:26.316Z,5.70
2019-03-28T17:19:30.029Z,5.47
2019-03-28T17:24:33.556Z,6.60
2019-03-28T17:29:37.090Z,7.50
2019-03-28T17:34:40.647Z,7.60
2019-03-28T17:39:44.160Z,8.43
2019-03-28T17:44:47.673Z,9.00
2019-03-28T17:49:51.808Z,8.20
2019-03-28T17:54:55.557Z,12.50
2019-03-28T17:59:59.145Z,12.40
2019-03-28T18:05:09.196Z,11.73
2019-03-28T18:10:08.439Z,9.23
2019-03-28T18:15:12.318Z,10.87
2019-03-28T18:20:15.888Z,8.40
2019-03-28T18:25:19.453Z,9.33
2019-03-28T18:30:23.581Z,9.93
2019-03-28T18:35:27.098Z,7.23
2019-03-28T18:40:31.471Z,8.00
2019-03-28T18:45:35.126Z,8.20
2019-03-28T18:50:41.094Z,8.80
2019-03-28T18:55:44.126Z,10.90
2019-03-28T19:00:48.294Z,12.97
2019-03-28T19:05:52.041Z,9.80
2019-03-28T19:10:55.591Z,8.83
2019-03-28T19:15:59.138Z,8.50
2019-03-28T19:21:02.714Z,11.07
2019-03-28T19:26:06.230Z,12.10
2019-03-28T19:31:09.771Z,12.17
2019-03-28T19:36:34.945Z,15.30
2019-03-28T19:41:38.455Z,12.90
2019-03-28T19:46:41.956Z,13.10
2019-03-28T19:51:47.695Z,12.53
2019-03-28T19:56:50.918Z,13.17
2019-03-28T20:02:00.182Z,13.63
2019-03-28T20:07:03.723Z,13.77
2019-03-28T20:12:07.293Z,12.57
2019-03-28T20:17:10.815Z,13.10
2019-03-28T20:22:14.335Z,13.17
2019-03-28T20:27:17.884Z,12.20
2019-03-28T20:32:21.505Z,11.57
2019-03-28T20:37:25.321Z,14.50
2019-03-28T20:42:28.823Z,15.23
2019-03-28T20:47:32.335Z,11.43
2019-03-28T20:52:35.862Z,11.50
2019-03-28T20:57:40.544Z,11.47
2019-03-28T21:02:44.156Z,9.90
2019-03-28T21:07:47.667Z,10.87
2019-03-28T21:12:51.208Z,11.50
2019-03-28T21:17:54.714Z,11.57
2019-03-28T21:22:58.249Z,11.27
2019-03-28T21:28:01.773Z,11.40
2019-03-28T21:33:05.293Z,11.70
2019-03-28T21:38:08.816Z,12.67
2019-03-28T21:43:12.355Z,13.33
2019-03-28T21:48:16.909Z,15.17
2019-03-28T21:53:20.707Z,15.80
2019-03-28T21:58:24.241Z,17.23
2019-03-28T22:03:27.759Z,14.40
2019-03-28T22:08:31.346Z,20.43
2019-03-28T22:13:34.883Z,12.93
2019-03-28T22:18:38.403Z,11.90
2019-03-28T22:23:41.942Z,14.23
2019-03-28T22:28:45.459Z,15.60
2019-03-28T22:33:49.110Z,11.27
2019-03-28T22:38:52.606Z,11.43
2019-03-28T22:43:56.161Z,12.53
2019-03-28T22:48:59.689Z,17.33
2019-03-28T22:54:03.205Z,11.47
2019-03-28T22:59:06.784Z,10.70
2019-03-28T23:04:10.301Z,11.37
2019-03-28T23:09:13.825Z,12.40
2019-03-28T23:14:17.331Z,11.77
2019-03-28T23:19:20.839Z,10.40
2019-03-28T23:24:24.356Z,10.07
2019-03-28T23:29:27.883Z,10.50
2019-03-28T23:34:31.420Z,10.80
2019-03-28T23:39:34.963Z,11.27
2019-03-28T23:44:38.702Z,11.77
2019-03-28T23:49:42.217Z,11.00
2019-03-28T23:54:45.758Z,11.30
2019-03-28T23:59:49.280Z,11.30
